This is the latest recevied weather packets stored in our database for station/object JS1SZZ-13. If no packets are shown the sender has not sent any weather packets the latest 10 day(s).
| Time | Temp. | Humidity | Pressure | Rain* | Wind** | Luminosity | Snow |
|---|---|---|---|---|---|---|---|
| 1778019342 | 12.78° C | 57% | 1020.7 hPa | 0 mm | - | - | - |
| 1778018441 | 11.67° C | 64% | 1021.1 hPa | 0 mm | - | - | - |
| 1778017541 | 10.56° C | 68% | 1021 hPa | 0 mm | - | - | - |
| 1778016642 | 9.44° C | 79% | 1021.3 hPa | 0 mm | - | - | - |
| 1778015741 | 7.78° C | 85% | 1021.4 hPa | 0 mm | - | - | - |
| 1778014843 | 6.67° C | 89% | 1021.1 hPa | 0 mm | - | - | - |
| 1778013942 | 6.11° C | 90% | 1020.8 hPa | 0 mm | - | - | - |
| 1778013041 | 5° C | 91% | 1021 hPa | 0 mm | - | - | - |
| 1778012142 | 4.44° C | 91% | 1020.9 hPa | 0 mm | - | - | - |
| 1778011242 | 4.44° C | 91% | 1020.7 hPa | 0 mm | - | - | - |
| 1778010343 | 4.44° C | 91% | 1020.7 hPa | 0 mm | - | - | - |
| 1778009442 | 4.44° C | 92% | 1020.8 hPa | 0 mm | - | - | - |
| 1778008543 | 4.44° C | 92% | 1020.8 hPa | 0 mm | - | - | - |
| 1778007642 | 4.44° C | 92% | 1020.6 hPa | 0 mm | - | - | - |
| 1778006741 | 4.44° C | 91% | 1020.6 hPa | 0 mm | - | - | - |
| 1778005843 | 4.44° C | 91% | 1020.6 hPa | 0 mm | - | - | - |
| 1778004942 | 4.44° C | 91% | 1020.2 hPa | 0 mm | - | - | - |
| 1778004041 | 4.44° C | 90% | 1020.4 hPa | 0 mm | - | - | - |
| 1778003143 | 4.44° C | 90% | 1020.5 hPa | 0 mm | - | - | - |
| 1778002242 | 5° C | 90% | 1020.3 hPa | 0 mm | - | - | - |
| 1778001342 | 5° C | 90% | 1020.5 hPa | 0 mm | - | - | - |
| 1778000442 | 5° C | 90% | 1020.4 hPa | 0 mm | - | - | - |
| 1777999543 | 5° C | 90% | 1020.4 hPa | 0 mm | - | - | - |
| 1777998641 | 5° C | 90% | 1020.3 hPa | 0 mm | - | - | - |
| 1777997742 | 5.56° C | 89% | 1020.5 hPa | 0 mm | - | - | - |
* Rain latest hour (hover to see other rain measurements)
** Current wind speed in m/s (hover to see current wind gust speed)